createdAt,value
2017-02-19T00:00:12.798Z,0
2017-02-19T00:01:12.349Z,0
2017-02-19T00:02:13.489Z,0
2017-02-19T00:03:13.844Z,0
2017-02-19T00:04:13.139Z,0
2017-02-19T00:05:13.500Z,0
2017-02-19T00:06:13.417Z,0
2017-02-19T00:07:13.377Z,0
2017-02-19T00:08:12.631Z,0
2017-02-19T00:09:13.330Z,0
2017-02-19T00:10:13.684Z,0
2017-02-19T00:11:13.260Z,0
2017-02-19T00:12:13.643Z,0
2017-02-19T00:13:12.492Z,0
2017-02-19T00:14:12.772Z,0
2017-02-19T00:15:13.592Z,0
2017-02-19T00:16:13.570Z,0
2017-02-19T00:17:13.122Z,0
2017-02-19T00:18:13.110Z,0
2017-02-19T00:19:13.524Z,0
2017-02-19T00:20:13.459Z,0
2017-02-19T00:21:13.444Z,0
2017-02-19T00:22:12.676Z,0
2017-02-19T00:23:13.357Z,0
2017-02-19T00:24:13.364Z,0
2017-02-19T00:25:12.917Z,0
2017-02-19T00:26:12.916Z,0
2017-02-19T00:27:12.465Z,0
2017-02-19T00:28:12.830Z,0
2017-02-19T00:29:11.668Z,0
2017-02-19T00:30:12.807Z,0
2017-02-19T00:31:11.976Z,0
2017-02-19T00:32:12.050Z,0
2017-02-19T00:33:13.115Z,0
2017-02-19T00:34:12.721Z,0
2017-02-19T00:35:12.657Z,0
2017-02-19T00:36:12.267Z,0
2017-02-19T00:37:12.671Z,0
2017-02-19T00:38:12.590Z,0
2017-02-19T00:39:12.580Z,0
2017-02-19T00:40:12.549Z,0
2017-02-19T00:41:11.748Z,0
2017-02-19T00:42:12.530Z,0
2017-02-19T00:43:12.441Z,0
2017-02-19T00:44:12.484Z,0
2017-02-19T00:45:12.474Z,0
2017-02-19T00:46:12.766Z,0
2017-02-19T00:47:12.379Z,0
2017-02-19T00:48:12.018Z,0
2017-02-19T00:49:11.934Z,0
2017-02-19T00:50:12.303Z,0
2017-02-19T00:51:12.330Z,0
2017-02-19T00:52:11.866Z,0
2017-02-19T00:53:11.827Z,0
2017-02-19T00:54:12.660Z,0
2017-02-19T00:55:11.770Z,0
2017-02-19T00:56:12.541Z,0
2017-02-19T00:57:11.750Z,0
2017-02-19T00:58:12.502Z,0
2017-02-19T00:59:11.309Z,0
2017-02-19T01:00:12.062Z,0
2017-02-19T01:01:10.873Z,0
2017-02-19T01:02:11.606Z,0
2017-02-19T01:03:11.600Z,0
2017-02-19T01:04:11.226Z,0
2017-02-19T01:05:11.925Z,0
2017-02-19T01:06:11.520Z,0
2017-02-19T01:07:12.336Z,0
2017-02-19T01:08:12.344Z,0
2017-02-19T01:09:11.845Z,0
2017-02-19T01:10:12.199Z,0
2017-02-19T01:11:11.383Z,0
2017-02-19T01:12:11.777Z,0
2017-02-19T01:13:11.741Z,0
2017-02-19T01:14:11.712Z,0
2017-02-19T01:15:11.704Z,0
2017-02-19T01:16:11.272Z,0
2017-02-19T01:17:11.357Z,0
2017-02-19T01:18:11.239Z,0
2017-02-19T01:19:11.619Z,0
2017-02-19T01:20:11.989Z,0
2017-02-19T01:21:11.560Z,0
2017-02-19T01:22:11.142Z,0
2017-02-19T01:23:11.555Z,0
2017-02-19T01:24:11.505Z,0
2017-02-19T01:25:11.458Z,0
2017-02-19T01:26:11.056Z,0
2017-02-19T01:27:11.026Z,0
2017-02-19T01:28:11.055Z,0
2017-02-19T01:29:11.774Z,0
2017-02-19T01:30:10.584Z,0
2017-02-19T01:31:10.542Z,0
2017-02-19T01:32:11.298Z,0
2017-02-19T01:33:11.641Z,0
2017-02-19T01:34:10.851Z,0
2017-02-19T01:35:11.215Z,0
2017-02-19T01:36:11.622Z,0
2017-02-19T01:37:11.160Z,0
2017-02-19T01:38:11.250Z,0
2017-02-19T01:39:11.174Z,0
2017-02-19T01:40:10.777Z,0
2017-02-19T01:41:11.077Z,0
2017-02-19T01:42:10.726Z,0
2017-02-19T01:43:11.404Z,0
2017-02-19T01:44:11.374Z,0
2017-02-19T01:45:10.975Z,0
2017-02-19T01:46:10.575Z,0
2017-02-19T01:47:11.311Z,0
2017-02-19T01:48:10.907Z,0
2017-02-19T01:49:11.311Z,0
2017-02-19T01:50:11.278Z,0
2017-02-19T01:51:10.818Z,0
2017-02-19T01:52:10.508Z,0
2017-02-19T01:53:10.772Z,0
2017-02-19T01:54:10.735Z,0
2017-02-19T01:55:09.950Z,0
2017-02-19T01:56:10.678Z,0
2017-02-19T01:57:10.689Z,0
2017-02-19T01:58:11.021Z,0
2017-02-19T01:59:10.287Z,0
2017-02-19T02:00:10.600Z,0
2017-02-19T02:01:10.947Z,0
2017-02-19T02:02:09.767Z,0
2017-02-19T02:03:10.905Z,0
2017-02-19T02:04:10.132Z,0
2017-02-19T02:05:10.465Z,0
2017-02-19T02:06:10.441Z,0
2017-02-19T02:07:10.413Z,0
2017-02-19T02:08:10.000Z,0
2017-02-19T02:09:10.382Z,0
2017-02-19T02:10:10.726Z,0
2017-02-19T02:11:10.708Z,0
2017-02-19T02:12:09.907Z,0
2017-02-19T02:13:09.919Z,0
2017-02-19T02:14:10.627Z,0
2017-02-19T02:15:09.439Z,0
2017-02-19T02:16:10.643Z,0
2017-02-19T02:17:10.600Z,0
2017-02-19T02:18:09.709Z,0
2017-02-19T02:19:10.516Z,0
2017-02-19T02:20:09.670Z,0
2017-02-19T02:21:08.952Z,0
2017-02-19T02:22:09.645Z,0
2017-02-19T02:23:09.989Z,0
2017-02-19T02:24:09.972Z,0
2017-02-19T02:25:09.913Z,0
2017-02-19T02:26:09.502Z,0
2017-02-19T02:27:09.971Z,0
2017-02-19T02:28:10.254Z,0
2017-02-19T02:29:09.801Z,0
2017-02-19T02:30:09.799Z,0
2017-02-19T02:31:09.762Z,0
2017-02-19T02:32:09.373Z,0
2017-02-19T02:33:09.358Z,0
2017-02-19T02:34:10.087Z,0
2017-02-19T02:35:08.907Z,0
2017-02-19T02:36:09.640Z,0
2017-02-19T02:37:09.626Z,0
2017-02-19T02:38:09.218Z,0
2017-02-19T02:39:08.820Z,0
2017-02-19T02:40:09.973Z,0
2017-02-19T02:41:09.521Z,0
2017-02-19T02:42:09.492Z,0
2017-02-19T02:43:09.115Z,0
2017-02-19T02:44:09.444Z,0
2017-02-19T02:45:08.261Z,0
2017-02-19T02:46:08.996Z,0
2017-02-19T02:47:09.372Z,0
2017-02-19T02:48:09.322Z,0
2017-02-19T02:49:08.919Z,0
2017-02-19T02:50:09.289Z,0
2017-02-19T02:51:09.661Z,0
2017-02-19T02:52:08.858Z,0
2017-02-19T02:53:08.831Z,0
2017-02-19T02:54:08.789Z,0
2017-02-19T02:55:08.815Z,0
2017-02-19T02:56:08.805Z,0
2017-02-19T02:57:08.736Z,0
2017-02-19T02:58:09.084Z,0
2017-02-19T02:59:08.813Z,0
2017-02-19T03:00:07.880Z,0
2017-02-19T03:01:09.037Z,0
2017-02-19T03:02:09.011Z,0
2017-02-19T03:03:08.633Z,0
2017-02-19T03:04:08.937Z,0
2017-02-19T03:05:08.913Z,0
2017-02-19T03:06:08.521Z,0
2017-02-19T03:07:08.102Z,0
2017-02-19T03:08:09.244Z,0
2017-02-19T03:09:08.828Z,0
2017-02-19T03:10:08.795Z,0
2017-02-19T03:11:08.759Z,0
2017-02-19T03:12:08.368Z,0
2017-02-19T03:13:08.340Z,0
2017-02-19T03:14:08.316Z,0
2017-02-19T03:15:08.285Z,0
2017-02-19T03:16:08.654Z,0
2017-02-19T03:17:08.307Z,0
2017-02-19T03:18:08.593Z,0
2017-02-19T03:19:08.574Z,0
2017-02-19T03:20:08.560Z,0
2017-02-19T03:21:08.511Z,0
2017-02-19T03:22:08.951Z,0
2017-02-19T03:23:08.097Z,0
2017-02-19T03:24:08.421Z,0
2017-02-19T03:25:08.796Z,0
2017-02-19T03:26:08.383Z,0
2017-02-19T03:27:07.990Z,0
2017-02-19T03:28:08.732Z,0
2017-02-19T03:29:08.698Z,0
2017-02-19T03:30:07.658Z,0
2017-02-19T03:31:07.868Z,0
2017-02-19T03:32:07.840Z,0
2017-02-19T03:33:07.829Z,0
2017-02-19T03:34:08.605Z,0
2017-02-19T03:35:08.161Z,0
2017-02-19T03:36:08.519Z,0
2017-02-19T03:37:07.724Z,0
2017-02-19T03:38:07.711Z,0
2017-02-19T03:39:08.093Z,0
2017-02-19T03:40:08.500Z,0
2017-02-19T03:41:08.021Z,0
2017-02-19T03:42:07.604Z,0
2017-02-19T03:43:07.573Z,0
2017-02-19T03:44:07.961Z,0
2017-02-19T03:45:07.909Z,0
2017-02-19T03:46:08.031Z,0
2017-02-19T03:47:07.081Z,0
2017-02-19T03:48:07.437Z,0
2017-02-19T03:49:08.177Z,0
2017-02-19T03:50:07.909Z,0
2017-02-19T03:51:08.147Z,0
2017-02-19T03:52:07.342Z,0
2017-02-19T03:53:07.328Z,0
2017-02-19T03:54:08.078Z,0
2017-02-19T03:55:06.935Z,0
2017-02-19T03:56:07.239Z,0
2017-02-19T03:57:07.335Z,0
2017-02-19T03:58:07.574Z,0
2017-02-19T03:59:07.301Z,0
2017-02-19T04:00:07.530Z,0
2017-02-19T04:01:07.897Z,0
2017-02-19T04:02:07.086Z,0
2017-02-19T04:03:07.178Z,0
2017-02-19T04:04:07.836Z,0
2017-02-19T04:05:07.800Z,0
2017-02-19T04:06:07.751Z,0
2017-02-19T04:07:07.348Z,0
2017-02-19T04:08:07.363Z,0
2017-02-19T04:09:07.704Z,0
2017-02-19T04:10:06.927Z,0
2017-02-19T04:11:07.270Z,0
2017-02-19T04:12:06.910Z,0
2017-02-19T04:13:07.213Z,0
2017-02-19T04:14:07.173Z,0
2017-02-19T04:15:06.756Z,0
2017-02-19T04:16:07.150Z,0
2017-02-19T04:17:06.748Z,0
2017-02-19T04:18:07.173Z,0
2017-02-19T04:19:07.054Z,0
2017-02-19T04:20:07.039Z,0
2017-02-19T04:21:07.007Z,0
2017-02-19T04:22:07.371Z,0
2017-02-19T04:23:06.249Z,0
2017-02-19T04:24:06.558Z,0
2017-02-19T04:25:06.518Z,0
2017-02-19T04:26:06.490Z,0
2017-02-19T04:27:07.246Z,0
2017-02-19T04:28:06.833Z,0
2017-02-19T04:29:06.875Z,0
2017-02-19T04:30:05.976Z,0
2017-02-19T04:31:06.754Z,0
2017-02-19T04:32:07.126Z,0
2017-02-19T04:33:06.294Z,0
2017-02-19T04:34:07.084Z,0
2017-02-19T04:35:06.783Z,0
2017-02-19T04:36:06.235Z,0
2017-02-19T04:37:06.980Z,0
2017-02-19T04:38:06.584Z,0
2017-02-19T04:39:07.044Z,0
2017-02-19T04:40:06.923Z,0
2017-02-19T04:41:06.531Z,0
2017-02-19T04:42:06.122Z,0
2017-02-19T04:43:06.449Z,0
2017-02-19T04:44:06.802Z,0
2017-02-19T04:45:06.401Z,0
2017-02-19T04:46:06.874Z,0
2017-02-19T04:47:06.358Z,0
2017-02-19T04:48:06.390Z,0
2017-02-19T04:49:06.305Z,0
2017-02-19T04:50:06.665Z,0
2017-02-19T04:51:06.255Z,0
2017-02-19T04:52:05.832Z,0
2017-02-19T04:53:05.806Z,0
2017-02-19T04:54:06.196Z,0
2017-02-19T04:55:06.240Z,0
2017-02-19T04:56:06.123Z,0
2017-02-19T04:57:06.083Z,0
2017-02-19T04:58:06.458Z,0
2017-02-19T04:59:05.753Z,0
2017-02-19T05:00:06.020Z,0
2017-02-19T05:01:06.411Z,0
2017-02-19T05:02:06.362Z,0
2017-02-19T05:03:06.331Z,0
2017-02-19T05:04:05.529Z,0
2017-02-19T05:05:06.279Z,0
2017-02-19T05:06:06.246Z,0
2017-02-19T05:07:05.837Z,0
2017-02-19T05:08:06.217Z,0
2017-02-19T05:09:06.212Z,0
2017-02-19T05:10:05.400Z,0
2017-02-19T05:11:05.747Z,0
2017-02-19T05:12:06.105Z,0
2017-02-19T05:13:06.143Z,0
2017-02-19T05:14:05.662Z,0
2017-02-19T05:15:06.037Z,0
2017-02-19T05:16:04.854Z,0
2017-02-19T05:17:05.591Z,0
2017-02-19T05:18:05.654Z,0
2017-02-19T05:19:05.934Z,0
2017-02-19T05:20:05.920Z,0
2017-02-19T05:21:05.871Z,0
2017-02-19T05:22:05.849Z,0
2017-02-19T05:23:05.057Z,0
2017-02-19T05:24:05.788Z,0
2017-02-19T05:25:05.024Z,0
2017-02-19T05:26:05.376Z,0
2017-02-19T05:27:05.740Z,0
2017-02-19T05:28:05.348Z,0
2017-02-19T05:29:05.293Z,0
2017-02-19T05:30:05.275Z,0
2017-02-19T05:31:05.362Z,0
2017-02-19T05:32:05.215Z,0
2017-02-19T05:33:04.901Z,0
2017-02-19T05:34:05.571Z,0
2017-02-19T05:35:04.829Z,0
2017-02-19T05:36:04.716Z,0
2017-02-19T05:37:05.121Z,0
2017-02-19T05:38:05.461Z,0
2017-02-19T05:39:04.764Z,0
2017-02-19T05:40:04.285Z,0
2017-02-19T05:41:05.369Z,0
2017-02-19T05:42:05.361Z,0
2017-02-19T05:43:04.942Z,0
2017-02-19T05:44:04.534Z,0
2017-02-19T05:45:04.518Z,0
2017-02-19T05:46:04.892Z,0
2017-02-19T05:47:05.227Z,0
2017-02-19T05:48:04.443Z,0
2017-02-19T05:49:04.440Z,0
2017-02-19T05:50:05.194Z,0
2017-02-19T05:51:05.108Z,0
2017-02-19T05:52:04.323Z,0
2017-02-19T05:53:05.092Z,0
2017-02-19T05:54:04.281Z,0
2017-02-19T05:55:04.634Z,0
2017-02-19T05:56:04.225Z,0
2017-02-19T05:57:04.999Z,0
2017-02-19T05:58:04.958Z,0
2017-02-19T05:59:04.147Z,0
2017-02-19T06:00:04.515Z,0
2017-02-19T06:01:04.486Z,0
2017-02-19T06:02:04.518Z,0
2017-02-19T06:03:04.057Z,0
2017-02-19T06:04:04.820Z,0
2017-02-19T06:05:04.033Z,0
2017-02-19T06:06:03.987Z,0
2017-02-19T06:07:04.348Z,0
2017-02-19T06:08:04.307Z,0
2017-02-19T06:09:04.676Z,0
2017-02-19T06:10:04.684Z,0
2017-02-19T06:11:04.230Z,0
2017-02-19T06:12:04.206Z,0
2017-02-19T06:13:03.798Z,0
2017-02-19T06:14:04.550Z,0
2017-02-19T06:15:03.742Z,0
2017-02-19T06:16:04.107Z,0
2017-02-19T06:17:04.079Z,0
2017-02-19T06:18:03.800Z,0
2017-02-19T06:19:04.031Z,0
2017-02-19T06:20:03.609Z,0
2017-02-19T06:21:03.993Z,0
2017-02-19T06:22:04.449Z,0
2017-02-19T06:23:03.929Z,0
2017-02-19T06:24:03.886Z,0
2017-02-19T06:25:03.515Z,0
2017-02-19T06:26:03.536Z,0
2017-02-19T06:27:04.246Z,0
2017-02-19T06:28:03.814Z,0
2017-02-19T06:29:03.764Z,0
2017-02-19T06:30:03.529Z,0
2017-02-19T06:31:04.117Z,0
2017-02-19T06:32:03.723Z,0
2017-02-19T06:33:03.671Z,0
2017-02-19T06:34:03.671Z,0
2017-02-19T06:35:03.687Z,0
2017-02-19T06:36:04.075Z,0
2017-02-19T06:37:03.586Z,0
2017-02-19T06:38:03.569Z,0
2017-02-19T06:39:03.528Z,0
2017-02-19T06:40:03.117Z,0
2017-02-19T06:41:03.497Z,0
2017-02-19T06:42:03.461Z,0
2017-02-19T06:43:03.137Z,0
2017-02-19T06:44:03.397Z,0
2017-02-19T06:45:02.985Z,0
2017-02-19T06:46:02.976Z,0
2017-02-19T06:47:03.348Z,0
2017-02-19T06:48:03.315Z,0
2017-02-19T06:49:03.696Z,0
2017-02-19T06:50:03.251Z,0
2017-02-19T06:51:03.622Z,0
2017-02-19T06:52:03.281Z,0
2017-02-19T06:53:03.197Z,0
2017-02-19T06:54:03.241Z,5
2017-02-19T06:55:02.411Z,5
2017-02-19T06:56:02.807Z,5
2017-02-19T06:57:02.709Z,5
2017-02-19T06:58:02.663Z,5
2017-02-19T06:59:03.018Z,5
2017-02-19T07:00:02.658Z,5
2017-02-19T07:01:02.968Z,5
2017-02-19T07:02:02.947Z,5
2017-02-19T07:03:02.951Z,5
2017-02-19T07:04:03.286Z,5
2017-02-19T07:05:02.926Z,10
2017-02-19T07:06:03.276Z,10
2017-02-19T07:07:03.236Z,10
2017-02-19T07:08:03.183Z,10
2017-02-19T07:09:02.764Z,10
2017-02-19T07:10:02.436Z,10
2017-02-19T07:11:03.154Z,10
2017-02-19T07:12:02.361Z,10
2017-02-19T07:13:03.089Z,10
2017-02-19T07:14:02.651Z,15
2017-02-19T07:15:03.022Z,15
2017-02-19T07:16:02.197Z,15
2017-02-19T07:17:01.809Z,15
2017-02-19T07:18:02.167Z,20
2017-02-19T07:19:02.527Z,20
2017-02-19T07:20:02.510Z,20
2017-02-19T07:21:02.868Z,25
2017-02-19T07:22:02.855Z,25
2017-02-19T07:23:02.811Z,25
2017-02-19T07:24:02.806Z,25
2017-02-19T07:25:02.775Z,25
2017-02-19T07:26:02.358Z,25
2017-02-19T07:27:01.944Z,25
2017-02-19T07:28:02.683Z,25
2017-02-19T07:29:02.254Z,30
2017-02-19T07:30:02.245Z,30
2017-02-19T07:31:02.271Z,35
2017-02-19T07:32:02.241Z,35
2017-02-19T07:33:01.930Z,40
2017-02-19T07:34:02.531Z,40
2017-02-19T07:35:02.521Z,40
2017-02-19T07:36:01.691Z,40
2017-02-19T07:37:02.079Z,45
2017-02-19T07:38:02.049Z,50
2017-02-19T07:39:02.038Z,55
2017-02-19T07:40:01.597Z,55
2017-02-19T07:41:01.657Z,55
2017-02-19T07:42:01.950Z,60
2017-02-19T07:43:01.525Z,60
2017-02-19T07:44:01.510Z,55
2017-02-19T07:45:02.255Z,55
2017-02-19T07:46:01.165Z,55
2017-02-19T07:47:01.553Z,55
2017-02-19T07:48:01.802Z,55
2017-02-19T07:49:01.761Z,50
2017-02-19T07:50:01.742Z,50
2017-02-19T07:51:01.322Z,50
2017-02-19T07:52:00.929Z,50
2017-02-19T07:53:00.911Z,50
2017-02-19T07:54:01.659Z,45
2017-02-19T07:55:01.629Z,45
2017-02-19T07:56:00.802Z,45
2017-02-19T07:57:01.190Z,45
2017-02-19T07:58:01.927Z,40
2017-02-19T07:59:01.526Z,40
2017-02-19T08:00:01.618Z,40
2017-02-19T08:01:01.883Z,40
2017-02-19T08:02:01.470Z,40
2017-02-19T08:03:01.439Z,40
2017-02-19T08:04:01.044Z,40
2017-02-19T08:05:01.426Z,40
2017-02-19T08:06:00.993Z,40
2017-02-19T08:07:01.754Z,40
2017-02-19T08:08:01.717Z,40
2017-02-19T08:09:01.655Z,40
2017-02-19T08:10:01.231Z,40
2017-02-19T08:11:01.606Z,35
2017-02-19T08:12:01.614Z,35
2017-02-19T08:13:00.817Z,35
2017-02-19T08:14:01.281Z,35
2017-02-19T08:15:01.140Z,35
2017-02-19T08:16:00.743Z,35
2017-02-19T08:17:01.497Z,30
2017-02-19T08:18:01.050Z,30
2017-02-19T08:19:01.046Z,30
2017-02-19T08:20:01.016Z,25
2017-02-19T08:21:01.367Z,25
2017-02-19T08:22:00.988Z,25
2017-02-19T08:23:00.956Z,20
2017-02-19T08:24:00.967Z,20
2017-02-19T08:25:01.281Z,25
2017-02-19T08:26:01.274Z,25
2017-02-19T08:27:00.852Z,25
2017-02-19T08:28:01.192Z,25
2017-02-19T08:29:00.465Z,25
2017-02-19T08:30:00.390Z,25
2017-02-19T08:31:00.753Z,25
2017-02-19T08:32:00.758Z,30
2017-02-19T08:33:00.690Z,30
2017-02-19T08:34:01.090Z,30
2017-02-19T08:35:00.650Z,30
2017-02-19T08:36:00.612Z,30
2017-02-19T08:37:00.304Z,30
2017-02-19T08:38:00.707Z,35
2017-02-19T08:39:00.552Z,35
2017-02-19T08:40:01.007Z,35
2017-02-19T08:41:00.496Z,35
2017-02-19T08:42:00.496Z,35
2017-02-19T08:43:00.836Z,35
2017-02-19T08:43:59.655Z,35
2017-02-19T08:45:00.009Z,40
2017-02-19T08:46:00.367Z,40
2017-02-19T08:47:00.347Z,40
2017-02-19T08:47:59.935Z,40
2017-02-19T08:49:00.701Z,40
2017-02-19T08:49:59.521Z,35
2017-02-19T08:50:59.487Z,35
2017-02-19T08:52:00.618Z,35
2017-02-19T08:53:00.588Z,35
2017-02-19T08:54:00.580Z,35
2017-02-19T08:55:00.547Z,35
2017-02-19T08:56:00.547Z,35
2017-02-19T08:57:00.476Z,35
2017-02-19T08:58:00.487Z,35
2017-02-19T08:59:00.066Z,35
2017-02-19T09:00:00.423Z,35
2017-02-19T09:00:59.225Z,35
2017-02-19T09:02:00.054Z,35
2017-02-19T09:02:59.582Z,30
2017-02-19T09:03:59.553Z,30
2017-02-19T09:05:00.031Z,25
2017-02-19T09:06:00.302Z,25
2017-02-19T09:07:00.261Z,25
2017-02-19T09:07:59.845Z,25
2017-02-19T09:09:00.246Z,25
2017-02-19T09:09:59.445Z,25
2017-02-19T09:10:59.426Z,25
2017-02-19T09:12:00.152Z,25
2017-02-19T09:12:59.345Z,25
2017-02-19T09:13:59.807Z,30
2017-02-19T09:14:59.280Z,30
2017-02-19T09:15:59.681Z,30
2017-02-19T09:16:59.637Z,30
2017-02-19T09:18:00.012Z,25
2017-02-19T09:18:59.638Z,25
2017-02-19T09:19:59.955Z,25
2017-02-19T09:20:59.169Z,30
2017-02-19T09:21:59.534Z,30
2017-02-19T09:22:59.937Z,30
2017-02-19T09:23:59.076Z,35
2017-02-19T09:24:59.855Z,35
2017-02-19T09:25:59.414Z,40
2017-02-19T09:26:59.402Z,40
2017-02-19T09:27:59.004Z,40
2017-02-19T09:28:59.751Z,40
2017-02-19T09:29:58.563Z,40
2017-02-19T09:30:58.547Z,45
2017-02-19T09:31:58.497Z,45
2017-02-19T09:32:59.640Z,45
2017-02-19T09:33:58.866Z,45
2017-02-19T09:34:59.218Z,50
2017-02-19T09:35:59.196Z,50
2017-02-19T09:36:59.150Z,45
2017-02-19T09:37:58.736Z,45
2017-02-19T09:38:58.727Z,45
2017-02-19T09:39:58.803Z,45
2017-02-19T09:40:59.505Z,45
2017-02-19T09:41:59.445Z,45
2017-02-19T09:42:58.648Z,45
2017-02-19T09:43:58.662Z,45
2017-02-19T09:44:59.447Z,45
2017-02-19T09:45:59.332Z,50
2017-02-19T09:46:59.452Z,50
2017-02-19T09:47:58.924Z,45
2017-02-19T09:48:58.897Z,45
2017-02-19T09:49:58.482Z,45
2017-02-19T09:50:58.873Z,45
2017-02-19T09:51:58.808Z,45
2017-02-19T09:52:58.799Z,45
2017-02-19T09:53:58.391Z,50
2017-02-19T09:54:59.123Z,50
2017-02-19T09:55:58.715Z,55
2017-02-19T09:56:58.682Z,60
2017-02-19T09:57:59.039Z,65
2017-02-19T09:58:58.744Z,70
2017-02-19T09:59:58.653Z,75
2017-02-19T10:01:00.144Z,75
2017-02-19T10:01:58.193Z,80
2017-02-19T10:02:58.937Z,95
2017-02-19T10:03:58.514Z,100
2017-02-19T10:04:58.458Z,135
2017-02-19T10:05:58.872Z,85
2017-02-19T10:06:58.509Z,65
2017-02-19T10:07:58.461Z,60
2017-02-19T10:08:58.532Z,55
2017-02-19T10:09:58.410Z,55
2017-02-19T10:10:58.798Z,55
2017-02-19T10:11:58.749Z,60
2017-02-19T10:12:58.334Z,60
2017-02-19T10:13:58.763Z,60
2017-02-19T10:14:58.688Z,50
2017-02-19T10:15:58.265Z,50
2017-02-19T10:16:57.895Z,55
2017-02-19T10:17:58.192Z,60
2017-02-19T10:18:58.645Z,65
2017-02-19T10:19:57.794Z,75
2017-02-19T10:20:58.504Z,75
2017-02-19T10:21:58.228Z,80
2017-02-19T10:22:58.482Z,80
2017-02-19T10:23:58.533Z,75
2017-02-19T10:24:58.499Z,70
2017-02-19T10:25:58.049Z,65
2017-02-19T10:26:58.422Z,65
2017-02-19T10:27:58.006Z,70
2017-02-19T10:28:57.960Z,75
2017-02-19T10:29:57.541Z,75
2017-02-19T10:30:57.962Z,75
2017-02-19T10:31:58.285Z,70
2017-02-19T10:32:57.686Z,65
2017-02-19T10:33:57.480Z,60
2017-02-19T10:34:57.819Z,60
2017-02-19T10:35:58.376Z,55
2017-02-19T10:36:57.798Z,55
2017-02-19T10:37:57.776Z,50
2017-02-19T10:38:57.757Z,45
2017-02-19T10:39:57.719Z,45
2017-02-19T10:40:57.288Z,45
2017-02-19T10:41:57.277Z,45
2017-02-19T10:42:57.650Z,45
2017-02-19T10:43:57.660Z,45
2017-02-19T10:44:57.656Z,45
2017-02-19T10:45:57.942Z,45
2017-02-19T10:46:57.970Z,50
2017-02-19T10:47:57.549Z,45
2017-02-19T10:48:57.928Z,45
2017-02-19T10:49:57.473Z,45
2017-02-19T10:50:57.922Z,45
2017-02-19T10:51:57.892Z,45
2017-02-19T10:52:57.848Z,40
2017-02-19T10:53:57.387Z,35
2017-02-19T10:54:57.435Z,30
2017-02-19T10:55:57.364Z,30
2017-02-19T10:56:57.705Z,25
2017-02-19T10:57:57.785Z,25
2017-02-19T10:58:56.887Z,20
2017-02-19T10:59:57.281Z,20
2017-02-19T11:00:57.642Z,20
2017-02-19T11:01:57.643Z,20
2017-02-19T11:02:57.180Z,20
2017-02-19T11:03:57.169Z,20
2017-02-19T11:04:56.726Z,20
2017-02-19T11:05:57.520Z,20
2017-02-19T11:06:57.158Z,15
2017-02-19T11:07:56.670Z,15
2017-02-19T11:08:56.658Z,15
2017-02-19T11:09:57.067Z,15
2017-02-19T11:10:56.993Z,10
2017-02-19T11:11:57.356Z,10
2017-02-19T11:12:56.942Z,10
2017-02-19T11:13:56.128Z,10
2017-02-19T11:14:56.922Z,10
2017-02-19T11:15:56.924Z,10
2017-02-19T11:16:57.263Z,10
2017-02-19T11:17:56.452Z,10
2017-02-19T11:18:56.812Z,10
2017-02-19T11:19:57.210Z,10
2017-02-19T11:20:56.780Z,10
2017-02-19T11:21:56.740Z,15
2017-02-19T11:22:57.140Z,10
2017-02-19T11:23:56.311Z,15
2017-02-19T11:24:56.269Z,15
2017-02-19T11:25:56.650Z,15
2017-02-19T11:26:57.046Z,15
2017-02-19T11:27:56.649Z,10
2017-02-19T11:28:55.444Z,10
2017-02-19T11:29:56.566Z,10
2017-02-19T11:30:56.575Z,10
2017-02-19T11:31:56.506Z,10
2017-02-19T11:32:56.886Z,10
2017-02-19T11:33:56.491Z,10
2017-02-19T11:34:56.446Z,10
2017-02-19T11:35:56.443Z,10
2017-02-19T11:36:56.412Z,10
2017-02-19T11:37:56.381Z,10
2017-02-19T11:38:56.355Z,10
2017-02-19T11:39:56.810Z,10
2017-02-19T11:40:56.725Z,15
2017-02-19T11:41:55.511Z,15
2017-02-19T11:42:55.520Z,15
2017-02-19T11:43:56.230Z,15
2017-02-19T11:44:56.233Z,10
2017-02-19T11:45:55.834Z,10
2017-02-19T11:46:56.188Z,10
2017-02-19T11:47:56.155Z,10
2017-02-19T11:48:55.452Z,10
2017-02-19T11:49:55.724Z,10
2017-02-19T11:50:56.090Z,10
2017-02-19T11:51:55.665Z,15
2017-02-19T11:52:55.666Z,15
2017-02-19T11:53:56.016Z,15
2017-02-19T11:54:55.994Z,20
2017-02-19T11:55:55.712Z,20
2017-02-19T11:56:55.680Z,20
2017-02-19T11:57:55.590Z,20
2017-02-19T11:58:55.581Z,20
2017-02-19T11:59:55.869Z,25
2017-02-19T12:00:55.860Z,20
2017-02-19T12:01:56.232Z,20
2017-02-19T12:02:55.049Z,15
2017-02-19T12:03:56.171Z,15
2017-02-19T12:04:56.147Z,20
2017-02-19T12:05:55.834Z,20
2017-02-19T12:06:55.727Z,20
2017-02-19T12:07:56.083Z,20
2017-02-19T12:08:56.063Z,15
2017-02-19T12:09:56.056Z,15
2017-02-19T12:10:55.664Z,15
2017-02-19T12:11:55.637Z,15
2017-02-19T12:12:55.968Z,15
2017-02-19T12:13:55.935Z,15
2017-02-19T12:14:55.540Z,15
2017-02-19T12:15:55.541Z,20
2017-02-19T12:16:55.902Z,25
2017-02-19T12:17:55.480Z,25
2017-02-19T12:18:55.555Z,20
2017-02-19T12:19:55.421Z,20
2017-02-19T12:20:55.800Z,20
2017-02-19T12:21:54.987Z,20
2017-02-19T12:22:55.349Z,30
2017-02-19T12:23:55.347Z,40
2017-02-19T12:24:55.699Z,50
2017-02-19T12:25:55.665Z,45
2017-02-19T12:26:55.387Z,45
2017-02-19T12:27:55.240Z,45
2017-02-19T12:28:55.207Z,40
2017-02-19T12:29:55.239Z,35
2017-02-19T12:30:55.554Z,25
2017-02-19T12:31:55.175Z,25
2017-02-19T12:32:55.121Z,30
2017-02-19T12:33:55.111Z,25
2017-02-19T12:34:55.510Z,30
2017-02-19T12:35:55.059Z,35
2017-02-19T12:36:55.022Z,30
2017-02-19T12:37:55.378Z,30
2017-02-19T12:38:54.200Z,30
2017-02-19T12:39:55.358Z,25
2017-02-19T12:40:55.328Z,25
2017-02-19T12:41:54.915Z,25
2017-02-19T12:42:54.899Z,25
2017-02-19T12:43:54.873Z,30
2017-02-19T12:44:54.848Z,30
2017-02-19T12:45:54.826Z,30
2017-02-19T12:46:54.818Z,30
2017-02-19T12:47:55.204Z,25
2017-02-19T12:48:55.163Z,30
2017-02-19T12:49:54.320Z,30
2017-02-19T12:50:54.695Z,35
2017-02-19T12:51:55.071Z,45
2017-02-19T12:52:55.100Z,45
2017-02-19T12:53:55.038Z,40
2017-02-19T12:54:55.013Z,45
2017-02-19T12:55:54.968Z,40
2017-02-19T12:56:54.277Z,40
2017-02-19T12:57:54.557Z,35
2017-02-19T12:58:54.549Z,35
2017-02-19T12:59:55.030Z,30
2017-02-19T13:00:54.886Z,35
2017-02-19T13:01:54.056Z,35
2017-02-19T13:02:54.439Z,30
2017-02-19T13:03:54.817Z,30
2017-02-19T13:04:53.995Z,25
2017-02-19T13:05:54.354Z,25
2017-02-19T13:06:54.326Z,25
2017-02-19T13:07:54.326Z,25
2017-02-19T13:08:54.291Z,25
2017-02-19T13:09:54.674Z,30
2017-02-19T13:10:54.785Z,30
2017-02-19T13:11:54.221Z,30
2017-02-19T13:12:54.640Z,30
2017-02-19T13:13:54.244Z,25
2017-02-19T13:14:53.792Z,25
2017-02-19T13:15:54.140Z,25
2017-02-19T13:16:54.499Z,20
2017-02-19T13:17:54.083Z,20
2017-02-19T13:18:54.547Z,20
2017-02-19T13:19:54.038Z,20
2017-02-19T13:20:54.050Z,25
2017-02-19T13:21:53.668Z,25
2017-02-19T13:22:53.956Z,35
2017-02-19T13:23:53.953Z,35
2017-02-19T13:24:53.904Z,35
2017-02-19T13:25:53.518Z,30
2017-02-19T13:26:53.539Z,35
2017-02-19T13:27:53.873Z,35
2017-02-19T13:28:53.832Z,30
2017-02-19T13:29:53.451Z,35
2017-02-19T13:30:54.162Z,35
2017-02-19T13:31:53.380Z,40
2017-02-19T13:32:53.351Z,40
2017-02-19T13:33:54.112Z,40
2017-02-19T13:34:53.299Z,35
2017-02-19T13:35:54.189Z,30
2017-02-19T13:36:53.701Z,25
2017-02-19T13:37:53.637Z,25
2017-02-19T13:38:53.606Z,25
2017-02-19T13:39:53.644Z,30
2017-02-19T13:40:53.991Z,30
2017-02-19T13:41:53.970Z,35
2017-02-19T13:42:53.506Z,30
2017-02-19T13:43:53.564Z,30
2017-02-19T13:44:53.485Z,25
2017-02-19T13:45:53.863Z,25
2017-02-19T13:46:53.814Z,30
2017-02-19T13:47:52.986Z,35
2017-02-19T13:48:53.443Z,40
2017-02-19T13:49:53.732Z,40
2017-02-19T13:50:53.359Z,40
2017-02-19T13:51:53.313Z,40
2017-02-19T13:52:53.280Z,40
2017-02-19T13:53:53.272Z,45
2017-02-19T13:54:53.650Z,50
2017-02-19T13:55:53.630Z,50
2017-02-19T13:56:53.216Z,55
2017-02-19T13:57:53.554Z,55
2017-02-19T13:58:53.590Z,45
2017-02-19T13:59:53.524Z,45
2017-02-19T14:00:53.127Z,45
2017-02-19T14:01:53.466Z,40
2017-02-19T14:02:53.526Z,40
2017-02-19T14:03:52.748Z,40
2017-02-19T14:04:53.530Z,35
2017-02-19T14:05:53.373Z,30
2017-02-19T14:06:53.484Z,30
2017-02-19T14:07:53.331Z,35
2017-02-19T14:08:53.304Z,35
2017-02-19T14:09:53.270Z,30
2017-02-19T14:10:53.251Z,30
2017-02-19T14:11:52.915Z,30
2017-02-19T14:12:53.226Z,30
2017-02-19T14:13:52.848Z,30
2017-02-19T14:14:52.418Z,30
2017-02-19T14:15:53.180Z,25
2017-02-19T14:16:52.780Z,25
2017-02-19T14:17:53.123Z,25
2017-02-19T14:18:53.155Z,20
2017-02-19T14:19:52.681Z,20
2017-02-19T14:20:53.081Z,20
2017-02-19T14:21:52.624Z,25
2017-02-19T14:22:53.149Z,25
2017-02-19T14:23:52.556Z,25
2017-02-19T14:24:52.555Z,20
2017-02-19T14:25:52.143Z,20
2017-02-19T14:26:52.650Z,20
2017-02-19T14:27:52.880Z,20
2017-02-19T14:28:52.493Z,15
2017-02-19T14:29:52.446Z,20